Chadstone Weather > Observations for 23/03/21

Select Day:



Observations
Time Temp Hum DP Wind Gust Dir Rain >9am Press
C % C kph kph mm hPa
00:00 19.4 98 19.1 0.0 0.0 N 8.4 1001.3
00:10 19.4 99 19.3 0.6 7.2 N 8.7 1001.4
00:20 19.2 99 19.1 0.6 6.1 ENE 9.0 1001.1
00:30 19.2 99 19.1 0.0 1.1 E 9.0 1001.0
00:40 19.2 99 19.1 0.0 1.1 NE 9.0 1001.0
00:50 19.2 99 19.1 0.0 0.0 N 9.3 1000.9
01:00 19.2 99 19.1 0.0 0.0 N 9.3 1000.7
01:10 19.2 99 19.1 0.0 0.0 N 9.9 1000.5
01:20 19.2 99 19.1 0.0 0.0 N 9.9 1000.3
01:30 19.1 99 19.0 0.0 0.0 N 10.2 1000.4
01:40 19.1 99 19.0 0.0 0.0 N 10.5 1000.2
01:50 19.1 99 19.0 0.0 0.0 N 10.5 1000.0
02:00 19.1 99 19.0 0.0 0.0 N 10.8 1000.0
02:10 19.1 99 19.0 0.0 0.0 N 10.8 999.8
02:20 19.1 99 19.0 0.0 0.0 N 10.8 999.7
02:30 19.0 99 18.9 0.0 0.0 N 11.1 999.4
02:40 19.0 99 18.9 0.2 2.5 SSE 11.7 999.4
02:50 19.0 99 18.9 0.0 1.1 SSE 11.7 999.1
03:00 19.0 99 18.9 0.4 3.6 SSE 12.0 998.9
03:10 18.8 99 18.7 0.3 6.1 S 12.0 998.9
03:20 18.8 99 18.7 1.2 6.1 SSE 12.0 998.7
03:30 18.8 99 18.7 2.2 7.2 SSE 12.0 998.5
03:40 18.7 99 18.6 3.0 7.2 SSE 12.0 998.4
03:50 18.7 99 18.6 4.3 12.2 SSE 12.0 998.4
04:00 18.6 99 18.5 4.4 11.2 SSE 12.0 998.3
04:10 18.6 99 18.5 3.0 7.2 SE 12.0 998.1
04:20 18.6 99 18.5 3.8 8.6 SE 12.0 998.1
04:30 18.5 99 18.4 2.2 7.2 SE 12.0 997.8
04:40 18.5 99 18.4 5.0 13.3 ESE 12.3 997.5
04:50 18.4 99 18.3 5.1 13.3 SSE 12.3 997.6
05:00 18.5 99 18.4 3.6 9.7 ESE 12.3 997.2
05:10 18.5 99 18.4 2.6 8.6 ESE 12.3 997.2
05:20 18.5 99 18.4 2.6 6.1 SE 12.6 997.1
05:30 18.5 99 18.4 1.7 7.2 ESE 12.6 997.0
05:40 18.4 99 18.3 3.9 8.6 ESE 12.6 997.0
05:50 18.3 99 18.2 2.2 9.7 SE 12.9 996.9
06:00 18.2 99 18.1 6.5 14.8 S 12.9 996.9
06:10 18.1 99 18.0 5.9 13.3 SE 12.9 996.7
06:20 17.9 97 17.4 6.8 15.8 ESE 12.9 996.6
06:30 17.9 97 17.4 4.9 9.7 SE 12.9 996.4
06:40 17.9 97 17.4 3.5 8.6 SE 12.9 996.5
06:50 17.9 97 17.4 3.3 7.2 SSE 12.9 996.3
07:00 17.8 97 17.3 4.8 11.2 SSE 12.9 996.1
07:10 17.8 97 17.3 4.7 12.2 SSE 12.9 996.1
07:20 17.7 97 17.2 5.5 11.2 S 12.9 996.0
07:30 17.8 97 17.3 2.5 7.2 ESE 12.9 996.0
07:40 17.7 97 17.2 4.1 7.2 SE 12.9 996.0
07:50 17.7 97 17.2 4.4 8.6 ESE 12.9 995.9
08:00 17.7 97 17.2 4.5 9.7 SSE 12.9 995.7
08:10 17.8 97 17.3 4.5 9.7 SE 12.9 995.6
08:20 17.7 97 17.2 4.8 12.2 SSE 12.9 995.6
08:30 17.7 97 17.2 6.0 13.3 SSE 12.9 995.6
08:40 17.7 97 17.2 4.9 12.2 SE 12.9 995.5
08:50 17.7 97 17.2 5.7 12.2 SE 12.9 995.5
09:00 17.7 97 17.2 2.7 11.2 S 12.9 995.5
09:10 17.8 97 17.3 3.0 12.2 SSE 12.9 995.5
09:20 17.8 97 17.3 4.8 13.3 SE 12.9 995.1
09:30 17.9 97 17.4 3.4 11.2 SSE 12.9 995.0
09:40 18.0 99 17.9 5.1 11.2 SSE 12.9 994.8
09:50 18.0 99 17.9 6.6 13.3 SSE 12.9 994.7
10:00 18.2 99 18.1 7.5 13.3 SE 0.0 994.7
10:10 18.2 99 18.1 5.5 13.3 SSE 0.0 994.5
10:20 18.5 99 18.4 6.0 12.2 SE 0.0 994.5
10:30 18.6 99 18.5 9.0 17.3 SSE 0.0 994.4
10:40 18.8 99 18.7 8.0 17.3 SE 0.0 994.4
10:50 19.2 99 19.1 6.4 13.3 SSE 0.0 994.2
11:00 19.5 99 19.4 8.2 17.3 S 0.0 994.0
11:10 19.5 98 19.2 9.2 19.4 SE 0.0 993.9
11:20 19.9 97 19.4 8.3 22.0 S 0.0 993.8
11:30 20.1 94 19.1 6.4 19.4 SSE 0.0 993.6
11:40 20.3 93 19.1 5.9 13.3 SE 0.0 993.3
11:50 20.7 92 19.4 5.7 14.8 SE 0.0 993.0
12:00 21.0 88 19.0 7.3 15.8 SE 0.0 992.9
12:10 21.0 86 18.6 8.8 23.4 SE 0.0 992.7
12:20 21.0 85 18.4 7.6 23.4 SSE 0.0 992.6
12:30 21.2 85 18.6 5.4 13.3 SSE 0.0 992.3
12:40 21.1 84 18.3 7.5 14.8 SE 0.0 992.1
12:50 21.1 83 18.1 6.5 17.3 SE 0.0 992.1
13:00 21.3 83 18.3 6.1 19.4 SSE 0.0 991.9
13:10 21.6 82 18.4 7.2 19.4 SE 0.0 991.7
13:20 21.6 81 18.2 4.6 19.4 SSE 0.0 991.4
13:30 21.8 80 18.2 6.9 15.8 SSE 0.0 991.2
13:40 22.1 78 18.1 7.0 17.3 ESE 0.0 991.1
13:50 22.6 78 18.6 5.8 18.4 SE 0.0 990.8
14:00 22.4 76 18.0 8.8 20.9 SSE 0.0 990.5
14:10 22.4 76 18.0 6.8 20.9 SSE 0.0 990.5
14:20 22.5 76 18.1 6.1 15.8 SSE 0.0 990.3
14:30 22.4 75 17.8 4.3 17.3 SSE 0.0 990.1
14:40 22.1 75 17.5 6.2 14.8 SSE 0.0 989.9
14:50 22.2 77 18.0 2.2 11.2 S 0.0 989.7
15:00 22.3 77 18.1 2.9 9.7 SSW 0.0 989.7
15:10 22.4 76 18.0 2.6 9.7 WSW 0.0 989.4
15:20 22.2 76 17.8 3.0 9.7 SW 0.0 989.4
15:30 22.1 76 17.7 2.0 9.7 SSW 0.0 989.2
15:40 22.0 78 18.0 1.3 8.6 SW 0.0 989.2
15:50 21.9 81 18.5 1.1 8.6 SSW 0.0 989.1
16:00 21.8 81 18.4 1.3 6.1 SW 0.0 989.1
16:10 21.4 82 18.2 2.7 12.2 SW 0.0 989.0
16:20 21.0 84 18.2 3.6 11.2 S 0.0 988.9
16:30 20.7 86 18.3 3.3 9.7 SSW 0.0 988.9
16:40 20.5 88 18.5 1.2 12.2 SW 0.0 988.7
16:50 20.3 89 18.4 3.4 14.8 S 0.0 988.7
17:00 20.3 90 18.6 2.5 11.2 SE 0.3 988.6
17:10 20.2 90 18.5 2.5 8.6 S 0.3 988.5
17:20 20.2 91 18.7 2.3 9.7 W 0.3 988.5
17:30 20.1 91 18.6 3.7 12.2 SW 0.3 988.5
17:40 20.1 91 18.6 2.0 7.2 SSE 0.3 988.5
17:50 20.1 91 18.6 1.1 9.7 SSW 0.3 988.4
18:00 20.2 91 18.7 1.6 8.6 SW 0.3 988.5
18:10 20.1 90 18.4 2.0 11.2 SW 0.3 988.4
18:20 20.1 90 18.4 2.8 11.2 SSW 0.3 988.4
18:30 20.0 90 18.3 1.6 8.6 S 0.3 988.4
18:40 20.0 90 18.3 1.7 8.6 WSW 0.3 988.3
18:50 19.8 91 18.3 0.7 7.2 SE 0.3 988.3
19:00 19.7 92 18.4 1.5 8.6 SW 0.3 988.4
19:10 19.7 92 18.4 0.5 8.6 SW 0.3 988.5
19:20 19.6 93 18.5 0.3 6.1 WSW 0.3 988.5
19:30 19.6 93 18.5 0.3 5.0 SSW 0.3 988.3
19:40 19.6 93 18.5 0.5 6.1 WSW 0.3 988.3
19:50 19.6 93 18.5 1.2 6.1 WSW 0.3 988.2
20:00 19.6 94 18.6 0.9 8.6 SW 0.3 988.2
20:10 19.7 94 18.7 1.5 6.1 SSW 0.3 988.3
20:20 19.7 94 18.7 0.9 3.6 SSW 0.3 988.4
20:30 19.7 94 18.7 0.2 3.6 WSW 0.3 988.4
20:40 19.6 94 18.6 0.9 5.0 WSW 0.3 988.4
20:50 19.5 94 18.5 0.9 5.0 SW 0.3 988.4
21:00 19.6 94 18.6 1.5 9.7 W 0.3 988.4
21:10 19.6 94 18.6 1.6 12.2 WSW 0.3 988.3
21:20 19.6 94 18.6 1.6 7.2 WSW 0.3 988.5
21:30 19.5 94 18.5 1.1 7.2 WNW 0.3 988.4
21:40 19.5 93 18.4 0.4 5.0 WSW 0.3 988.5
21:50 19.4 93 18.3 1.3 6.1 WSW 0.3 988.6
22:00 19.2 93 18.1 0.0 5.0 SW 0.3 988.6
22:10 19.1 93 18.0 0.1 5.0 SW 0.3 988.6
22:20 19.1 93 18.0 0.1 3.6 W 0.3 988.5
22:30 19.0 93 17.9 0.0 2.5 WNW 0.3 988.7
22:40 18.8 95 18.0 0.5 6.1 WSW 0.3 988.7
22:50 18.8 95 18.0 0.5 3.6 W 0.3 988.6
23:00 18.8 95 18.0 0.1 2.5 WSW 0.3 988.5
23:10 18.8 95 18.0 0.1 3.6 SW 0.3 988.4
23:20 18.7 95 17.9 0.0 0.0 N 0.3 988.4
23:30 18.6 95 17.8 0.0 0.0 N 0.3 988.3
23:40 18.6 95 17.8 0.0 0.0 N 0.3 988.4
23:50 18.4 95 17.6 0.0 1.1 SW 0.3 988.2